createdAt,value
2019-04-23T00:02:29.774Z,4.50
2019-04-23T00:04:59.554Z,4.87
2019-04-23T00:10:12.363Z,4.63
2019-04-23T00:12:45.212Z,4.37
2019-04-23T00:15:09.249Z,4.57
2019-04-23T00:20:09.577Z,4.60
2019-04-23T00:23:00.220Z,4.20
2019-04-23T00:26:25.602Z,5.10
2019-04-23T00:31:13.666Z,4.40
2019-04-23T00:33:34.534Z,4.60
2019-04-23T00:36:10.651Z,4.50
2019-04-23T00:38:45.490Z,4.20
2019-04-23T00:41:13.917Z,4.83
2019-04-23T00:43:42.887Z,5.23
2019-04-23T00:46:15.519Z,4.37
2019-04-23T00:51:13.843Z,4.40
2019-04-23T00:53:46.704Z,5.13
2019-04-23T00:56:32.424Z,4.60
2019-04-23T00:58:48.207Z,4.30
2019-04-23T01:01:19.229Z,4.60
2019-04-23T01:03:52.998Z,4.80
2019-04-23T01:06:24.138Z,4.00
2019-04-23T01:08:53.691Z,4.23
2019-04-23T01:14:08.160Z,4.33
2019-04-23T01:16:20.942Z,4.60
2019-04-23T01:19:24.841Z,3.90
2019-04-23T01:21:41.261Z,4.83
2019-04-23T01:24:40.815Z,4.87
2019-04-23T01:27:46.017Z,4.30
2019-04-23T01:30:10.063Z,4.50
2019-04-23T01:32:42.395Z,4.37
2019-04-23T01:37:56.260Z,4.70
2019-04-23T01:45:20.383Z,4.87
2019-04-23T01:50:20.409Z,4.60
2019-04-23T01:52:55.739Z,4.53
2019-04-23T01:55:21.170Z,4.50
2019-04-23T01:57:58.527Z,4.43
2019-04-23T02:00:24.159Z,4.50
2019-04-23T02:02:57.575Z,4.80
2019-04-23T02:10:49.385Z,4.83
2019-04-23T02:13:01.814Z,4.50
2019-04-23T02:15:31.987Z,4.57
2019-04-23T02:18:06.567Z,4.27
2019-04-23T02:20:37.412Z,4.63
2019-04-23T02:23:24.923Z,5.20
2019-04-23T02:28:38.856Z,4.70
2019-04-23T02:31:12.182Z,4.80
2019-04-23T02:33:38.411Z,4.30
2019-04-23T02:41:13.114Z,5.23
2019-04-23T02:43:20.190Z,5.13
2019-04-23T02:46:05.514Z,5.57
2019-04-23T02:51:04.784Z,5.20
2019-04-23T02:53:44.654Z,5.00
2019-04-23T02:56:18.236Z,5.10
2019-04-23T02:58:43.984Z,5.10
2019-04-23T03:01:21.993Z,5.10
2019-04-23T03:08:49.299Z,5.43
2019-04-23T03:13:53.599Z,5.03
2019-04-23T03:19:04.988Z,6.37
2019-04-23T03:21:53.789Z,5.80
2019-04-23T03:24:36.357Z,5.77
2019-04-23T03:37:20.346Z,6.23
2019-04-23T03:39:50.444Z,5.70
2019-04-23T03:42:17.728Z,5.70
2019-04-23T03:44:49.209Z,5.13
2019-04-23T03:47:11.499Z,5.57
2019-04-23T03:49:41.229Z,5.47
2019-04-23T03:59:46.768Z,5.60
2019-04-23T04:04:39.061Z,5.47
2019-04-23T04:09:49.900Z,5.07
2019-04-23T04:12:25.468Z,5.30
2019-04-23T04:15:07.212Z,5.37
2019-04-23T04:17:20.131Z,5.30
2019-04-23T04:22:26.882Z,5.53
2019-04-23T04:24:48.964Z,5.83
2019-04-23T04:30:10.580Z,5.63
2019-04-23T04:32:46.883Z,5.73
2019-04-23T04:37:40.519Z,5.50
2019-04-23T04:41:05.606Z,5.87
2019-04-23T04:42:33.271Z,5.40
2019-04-23T04:55:03.215Z,6.57
2019-04-23T04:57:56.719Z,7.40
2019-04-23T05:00:13.327Z,7.43
2019-04-23T05:03:01.172Z,7.70
2019-04-23T05:05:33.025Z,8.60
2019-04-23T05:07:40.250Z,8.83
2019-04-23T05:10:21.638Z,8.47
2019-04-23T05:12:40.986Z,7.83
2019-04-23T05:15:23.502Z,8.03
2019-04-23T05:18:08.289Z,6.90
2019-04-23T05:20:37.229Z,7.70
2019-04-23T05:23:22.854Z,8.00
2019-04-23T05:25:33.110Z,7.53
2019-04-23T05:28:07.979Z,7.10
2019-04-23T05:30:39.481Z,6.80
2019-04-23T05:33:11.658Z,7.43
2019-04-23T05:36:02.142Z,6.60
2019-04-23T05:38:18.334Z,6.43
2019-04-23T05:40:45.241Z,6.53
2019-04-23T05:43:15.029Z,6.87
2019-04-23T05:45:40.203Z,6.03
2019-04-23T05:50:54.058Z,6.33
2019-04-23T05:55:47.619Z,6.57
2019-04-23T05:58:23.255Z,6.53
2019-04-23T06:00:59.626Z,6.77
2019-04-23T06:03:22.720Z,6.50
2019-04-23T06:05:56.532Z,6.70
2019-04-23T06:11:02.315Z,6.60
2019-04-23T06:15:59.671Z,5.93
2019-04-23T06:18:31.949Z,6.37
2019-04-23T06:21:05.595Z,7.30
2019-04-23T06:23:38.220Z,7.07
2019-04-23T06:26:19.867Z,6.10
2019-04-23T06:28:31.649Z,6.77
2019-04-23T06:31:09.640Z,6.53
2019-04-23T06:38:44.942Z,6.23
2019-04-23T06:44:01.980Z,6.93
2019-04-23T06:46:28.941Z,6.73
2019-04-23T06:48:57.052Z,6.13
2019-04-23T06:53:57.834Z,6.90
2019-04-23T06:56:39.045Z,6.47
2019-04-23T06:59:00.943Z,6.30
2019-04-23T07:01:27.714Z,6.53
2019-04-23T07:04:05.460Z,6.43
2019-04-23T07:11:38.675Z,7.07
2019-04-23T07:13:58.313Z,6.97
2019-04-23T07:19:09.614Z,6.80
2019-04-23T07:21:37.318Z,6.83
2019-04-23T07:24:08.518Z,6.37
2019-04-23T07:26:40.463Z,6.37
2019-04-23T07:34:15.662Z,6.73
2019-04-23T07:36:58.865Z,6.50
2019-04-23T07:39:43.098Z,6.40
2019-04-23T07:45:02.482Z,6.23
2019-04-23T07:48:06.548Z,6.37
2019-04-23T07:50:41.349Z,6.17
2019-04-23T07:53:06.324Z,6.20
2019-04-23T07:55:41.118Z,5.90
2019-04-23T07:58:06.477Z,6.10
2019-04-23T08:00:44.379Z,6.13
2019-04-23T08:03:10.912Z,6.00
2019-04-23T08:08:07.508Z,4.93
2019-04-23T08:10:56.861Z,5.60
2019-04-23T08:13:16.405Z,5.83
2019-04-23T08:15:42.946Z,5.27
2019-04-23T08:23:25.699Z,5.10
2019-04-23T08:26:19.390Z,5.23
2019-04-23T08:29:01.054Z,4.93
2019-04-23T08:31:15.152Z,4.83
2019-04-23T08:33:53.005Z,4.97
2019-04-23T08:36:20.098Z,4.53
2019-04-23T08:38:44.675Z,5.17
2019-04-23T08:43:57.340Z,4.47
2019-04-23T08:46:52.044Z,4.47
2019-04-23T08:49:22.237Z,4.53
2019-04-23T08:54:27.958Z,4.77
2019-04-23T08:56:48.574Z,4.73
2019-04-23T08:59:24.945Z,4.77
2019-04-23T09:01:59.418Z,4.37
2019-04-23T09:04:18.555Z,4.20
2019-04-23T09:06:53.072Z,4.03
2019-04-23T09:09:20.237Z,3.73
2019-04-23T09:11:56.412Z,3.97
2019-04-23T09:14:10.265Z,3.30
2019-04-23T09:16:58.400Z,3.27
2019-04-23T09:19:42.912Z,2.90
2019-04-23T09:22:04.131Z,3.30
2019-04-23T09:24:27.600Z,2.70
2019-04-23T09:26:58.739Z,3.25
2019-04-23T09:29:41.145Z,3.10
2019-04-23T09:34:58.691Z,3.10
2019-04-23T09:37:45.344Z,3.30
2019-04-23T09:41:03.128Z,3.60
2019-04-23T09:43:38.234Z,3.50
2019-04-23T09:51:29.922Z,3.95
2019-04-23T09:54:04.309Z,4.10
2019-04-23T09:56:35.861Z,4.05
2019-04-23T09:59:08.959Z,4.30
2019-04-23T10:01:41.340Z,4.70
2019-04-23T10:03:53.330Z,4.42
2019-04-23T10:06:18.216Z,4.50
2019-04-23T10:08:47.427Z,4.97
2019-04-23T10:11:13.817Z,4.20
2019-04-23T10:13:45.026Z,4.00
2019-04-23T10:16:17.220Z,4.70
2019-04-23T10:18:46.811Z,4.62
2019-04-23T10:21:17.453Z,4.28
2019-04-23T10:23:47.506Z,4.67
2019-04-23T10:26:16.963Z,4.25
2019-04-23T10:28:52.039Z,4.95
2019-04-23T10:31:22.875Z,4.05
2019-04-23T10:33:52.488Z,4.37
2019-04-23T10:36:25.203Z,4.47
2019-04-23T10:39:00.474Z,4.70
2019-04-23T10:41:25.683Z,4.37
2019-04-23T10:44:00.774Z,4.90
2019-04-23T10:47:02.741Z,4.80
2019-04-23T10:50:07.424Z,4.87
2019-04-23T10:52:33.742Z,4.83
2019-04-23T10:55:00.799Z,4.40
2019-04-23T10:57:44.090Z,5.47
2019-04-23T10:59:58.541Z,5.20
2019-04-23T11:02:39.077Z,5.40
2019-04-23T11:05:29.108Z,5.10
2019-04-23T11:07:42.038Z,5.00
2019-04-23T11:10:08.742Z,5.47
2019-04-23T11:12:48.913Z,5.40
2019-04-23T11:15:55.708Z,5.50
2019-04-23T11:18:10.603Z,5.07
2019-04-23T11:20:34.131Z,5.40
2019-04-23T11:23:08.969Z,5.50
2019-04-23T11:25:35.993Z,5.80
2019-04-23T11:28:13.550Z,5.37
2019-04-23T11:36:18.713Z,5.40
2019-04-23T11:38:44.106Z,5.80
2019-04-23T11:40:41.736Z,5.83
2019-04-23T11:43:20.510Z,4.80
2019-04-23T11:45:59.192Z,5.50
2019-04-23T11:51:39.468Z,5.63
2019-04-23T11:53:31.984Z,6.30
2019-04-23T11:55:53.354Z,5.93
2019-04-23T11:58:34.083Z,5.70
2019-04-23T12:01:23.076Z,5.80
2019-04-23T12:04:02.774Z,6.17
2019-04-23T12:06:46.003Z,5.87
2019-04-23T12:09:45.144Z,7.37
2019-04-23T12:14:48.087Z,6.30
2019-04-23T12:17:29.456Z,6.10
2019-04-23T12:22:22.273Z,6.50
2019-04-23T12:30:01.242Z,6.40
2019-04-23T12:37:40.677Z,6.77
2019-04-23T12:42:55.536Z,6.97
2019-04-23T12:47:58.439Z,7.00
2019-04-23T12:50:41.682Z,6.67
2019-04-23T12:55:22.367Z,6.60
2019-04-23T13:00:27.122Z,6.93
2019-04-23T13:02:48.574Z,7.13
2019-04-23T13:08:05.719Z,6.43
2019-04-23T13:10:30.154Z,6.47
2019-04-23T13:13:01.908Z,7.20
2019-04-23T13:15:30.846Z,7.13
2019-04-23T13:25:47.356Z,7.63
2019-04-23T13:38:27.250Z,7.23
2019-04-23T13:48:24.904Z,7.10
2019-04-23T13:50:59.687Z,7.03
2019-04-23T13:56:02.149Z,6.80
2019-04-23T14:01:13.988Z,7.40
2019-04-23T14:06:18.181Z,7.20
2019-04-23T14:11:21.568Z,7.50
2019-04-23T14:13:49.718Z,6.50
2019-04-23T14:21:20.361Z,7.67
2019-04-23T14:24:03.453Z,7.83
2019-04-23T14:28:44.841Z,7.57
2019-04-23T14:31:23.384Z,7.40
2019-04-23T14:34:00.185Z,7.40
2019-04-23T14:36:27.003Z,7.10
2019-04-23T14:39:05.716Z,7.23
2019-04-23T14:44:11.438Z,7.10
2019-04-23T14:49:16.496Z,7.07
2019-04-23T14:51:58.593Z,7.13
2019-04-23T14:54:24.913Z,7.13
2019-04-23T14:56:51.531Z,7.83
2019-04-23T14:59:10.710Z,7.30
2019-04-23T15:01:48.978Z,6.90
2019-04-23T15:04:19.156Z,7.10
2019-04-23T15:09:27.628Z,7.10
2019-04-23T15:11:53.113Z,7.70
2019-04-23T15:14:46.404Z,8.03
2019-04-23T15:17:01.618Z,7.70
2019-04-23T15:19:40.135Z,7.70
2019-04-23T15:22:07.792Z,8.00
2019-04-23T15:29:24.602Z,7.90
2019-04-23T15:32:14.979Z,7.77
2019-04-23T15:34:45.471Z,7.73
2019-04-23T15:37:26.246Z,7.93
2019-04-23T15:39:46.489Z,8.40
2019-04-23T15:42:23.089Z,8.83
2019-04-23T15:44:48.817Z,8.40
2019-04-23T15:47:20.221Z,8.57
2019-04-23T15:49:51.368Z,8.13
2019-04-23T15:52:27.321Z,8.93
2019-04-23T15:57:32.480Z,8.47
2019-04-23T16:01:54.314Z,9.30
2019-04-23T16:04:24.139Z,8.80
2019-04-23T16:06:54.003Z,9.30
2019-04-23T16:09:54.136Z,9.10
2019-04-23T16:12:22.263Z,8.90
2019-04-23T16:15:07.862Z,9.70
2019-04-23T16:17:28.963Z,9.13
2019-04-23T16:20:27.661Z,9.70
2019-04-23T16:22:39.667Z,10.07
2019-04-23T16:25:12.740Z,9.60
2019-04-23T16:27:50.404Z,10.07
2019-04-23T16:35:43.367Z,9.63
2019-04-23T16:38:18.512Z,9.13
2019-04-23T16:40:37.863Z,9.63
2019-04-23T16:43:08.626Z,9.83
2019-04-23T16:45:41.030Z,9.93
2019-04-23T16:48:37.565Z,9.43
2019-04-23T16:53:19.675Z,8.27
2019-04-23T16:56:05.522Z,9.07
2019-04-23T16:58:25.214Z,8.57
2019-04-23T17:05:55.040Z,8.90
2019-04-23T17:11:00.103Z,8.17
2019-04-23T17:13:21.114Z,8.77
2019-04-23T17:16:00.247Z,8.80
2019-04-23T17:18:25.945Z,7.70
2019-04-23T17:23:34.443Z,8.47
2019-04-23T17:25:59.211Z,8.40
2019-04-23T17:31:28.085Z,7.63
2019-04-23T17:33:43.475Z,8.03
2019-04-23T17:36:24.834Z,8.10
2019-04-23T17:39:02.788Z,8.00
2019-04-23T17:41:38.810Z,8.30
2019-04-23T17:44:18.310Z,8.87
2019-04-23T17:46:43.145Z,8.93
2019-04-23T17:51:31.195Z,8.47
2019-04-23T17:54:45.004Z,8.93
2019-04-23T17:59:12.043Z,8.27
2019-04-23T18:01:47.334Z,8.03
2019-04-23T18:04:36.266Z,7.37
2019-04-23T18:09:25.547Z,8.70
2019-04-23T18:11:52.277Z,8.60
2019-04-23T18:14:34.725Z,8.70
2019-04-23T18:19:17.528Z,7.73
2019-04-23T18:22:18.989Z,7.80
2019-04-23T18:25:05.755Z,7.40
2019-04-23T18:27:33.752Z,7.67
2019-04-23T18:30:15.662Z,7.73
2019-04-23T18:35:42.621Z,7.80
2019-04-23T18:38:07.362Z,8.43
2019-04-23T18:40:41.973Z,7.80
2019-04-23T18:45:45.319Z,7.50
2019-04-23T18:48:40.663Z,8.83
2019-04-23T18:50:59.826Z,8.43
2019-04-23T18:53:40.833Z,8.67
2019-04-23T18:58:47.497Z,8.73
2019-04-23T19:06:37.705Z,9.07
2019-04-23T19:15:09.523Z,8.70
2019-04-23T19:20:01.077Z,8.20
2019-04-23T19:22:51.589Z,9.17
2019-04-23T19:25:11.065Z,8.40
2019-04-23T19:27:38.628Z,8.23
2019-04-23T19:30:13.571Z,8.07
2019-04-23T19:32:49.222Z,8.07
2019-04-23T19:35:23.756Z,8.17
2019-04-23T19:37:55.914Z,8.00
2019-04-23T19:40:15.258Z,8.57
2019-04-23T19:42:50.764Z,8.47
2019-04-23T19:45:20.578Z,8.30
2019-04-23T19:48:03.417Z,8.50
2019-04-23T19:50:28.542Z,8.23
2019-04-23T19:55:24.120Z,8.60
2019-04-23T20:00:28.849Z,9.53
2019-04-23T20:03:12.508Z,8.53
2019-04-23T20:05:35.610Z,8.70
2019-04-23T20:08:04.406Z,9.10
2019-04-23T20:10:33.230Z,9.00
2019-04-23T20:12:59.153Z,8.37
2019-04-23T20:15:40.930Z,9.07
2019-04-23T20:18:22.306Z,8.23
2019-04-23T20:20:48.041Z,7.93
2019-04-23T20:23:36.244Z,9.13
2019-04-23T20:26:07.361Z,9.03
2019-04-23T20:28:31.129Z,10.07
2019-04-23T20:31:13.983Z,8.93
2019-04-23T20:36:46.557Z,10.23
2019-04-23T20:39:17.384Z,10.63
2019-04-23T20:47:06.790Z,9.40
2019-04-23T20:49:42.274Z,9.83
2019-04-23T20:52:04.782Z,9.17
2019-04-23T20:54:42.312Z,9.53
2019-04-23T20:57:31.805Z,9.03
2019-04-23T21:02:58.862Z,9.80
2019-04-23T21:07:52.604Z,9.80
2019-04-23T21:10:27.388Z,10.13
2019-04-23T21:12:57.906Z,9.37
2019-04-23T21:15:10.369Z,9.17
2019-04-23T21:20:16.131Z,8.90
2019-04-23T21:22:51.037Z,8.63
2019-04-23T21:25:09.453Z,8.63
2019-04-23T21:27:57.473Z,8.80
2019-04-23T21:30:55.379Z,8.53
2019-04-23T21:33:13.462Z,8.73
2019-04-23T21:36:18.936Z,7.80
2019-04-23T21:39:12.154Z,7.53
2019-04-23T21:46:47.929Z,7.03
2019-04-23T21:51:49.314Z,7.00
2019-04-23T21:54:06.170Z,7.63
2019-04-23T21:56:47.210Z,7.00
2019-04-23T22:04:41.499Z,6.53
2019-04-23T22:06:53.000Z,7.63
2019-04-23T22:09:26.914Z,7.10
2019-04-23T22:12:08.934Z,6.93
2019-04-23T22:14:26.854Z,7.50
2019-04-23T22:17:06.155Z,6.90
2019-04-23T22:19:44.891Z,7.17
2019-04-23T22:22:12.639Z,6.07
2019-04-23T22:24:25.529Z,7.33
2019-04-23T22:26:58.378Z,7.97
2019-04-23T22:29:44.648Z,6.70
2019-04-23T22:32:02.575Z,6.97
2019-04-23T22:34:42.817Z,7.17
2019-04-23T22:37:10.899Z,7.23
2019-04-23T22:42:35.847Z,7.13
2019-04-23T22:44:57.451Z,7.27
2019-04-23T22:47:06.069Z,6.60
2019-04-23T22:52:21.355Z,7.07
2019-04-23T22:57:44.633Z,7.27
2019-04-23T23:00:13.000Z,7.13
2019-04-23T23:03:09.786Z,6.40
2019-04-23T23:10:36.672Z,7.20
2019-04-23T23:13:15.067Z,7.03
2019-04-23T23:15:44.996Z,7.13
2019-04-23T23:18:14.660Z,6.97
2019-04-23T23:20:47.917Z,7.00
2019-04-23T23:23:22.686Z,6.27
2019-04-23T23:25:46.088Z,7.17
2019-04-23T23:28:20.059Z,7.23
2019-04-23T23:30:57.977Z,7.27
2019-04-23T23:33:35.930Z,7.23
2019-04-23T23:35:54.824Z,7.03
2019-04-23T23:38:25.791Z,6.50
2019-04-23T23:40:57.157Z,6.97
2019-04-23T23:43:27.167Z,6.77
2019-04-23T23:46:03.562Z,6.63
2019-04-23T23:48:23.442Z,7.17
2019-04-23T23:51:00.663Z,6.60
2019-04-23T23:53:32.907Z,6.87
2019-04-23T23:56:05.426Z,6.47
2019-04-23T23:58:43.795Z,7.30
